Terminal Aerodrome Forecast
Issued by NWS Charleston, WV

Current Version | Previous Version | Text Only | Print | Product List | Glossary Off
Versions: 1 2 3 4 5 6 7 8 9 10 11 12 13 14 15 16 17 18 19 20 21 22 23 24 25

430
FTUS41 KRLX 142341
TAFBKW
TAF
KBKW 142341Z 1500/1524 33006KT 2SM -SHRA OVC003
     FM150700 36003KT 1/2SM FG OVC001
     FM151300 01004KT 2SM BR OVC004
     FM151600 02004KT 6SM BR OVC010
     FM151800 08005KT P6SM OVC015=

USA.gov is the U.S. government's official web portal to all federal, state and local government web resources and services.